Station Historical Data
Daily Summary for June 4, 2017 Units:  English    Metric   Both
« Previous Day
Next Day »
Daily Weekly Monthly Yearly Custom
  High: Low: Average:
Temperature: 73.6 °F 52.7 °F 62.5 °F
Dew Point: 62.5 °F 43.0 °F 54.6 °F
Humidity: 89% 64% 76%
Wind Speed: 14.0mph 0.0mph 3mph
Wind Gust: 22.0mph - -
Wind- - SSW
Pressure: 30.01 in 29.70 in -
Precipitation: 0.00 in    
Historical Graphs
 
 
Tabular Data for June 4, 2017
Time Temperature Dew Point Pressure Wind Wind Speed Wind Gust Humidity Rainfall Rate (Hourly)
00:04 54.4 °F 46.3 °F 30.01 in Calm     74% 0.00 in
00:09 54.9 °F 46.4 °F 30.01 in Calm     73% 0.00 in
00:14 55.2 °F 46.7 °F 30.01 in Calm     73% 0.00 in
00:19 55.2 °F 46.3 °F 30.01 in Calm     72% 0.00 in
00:24 55.1 °F 46.6 °F 30.01 in Calm     73% 0.00 in
00:29 55.2 °F 46.7 °F 30.01 in Calm     73% 0.00 in
00:34 54.9 °F 46.4 °F 30.01 in Calm     73% 0.00 in
00:39 54.6 °F 46.1 °F 30.01 in Calm     73% 0.00 in
00:44 54.7 °F 46.2 °F 30.00 in Calm     73% 0.00 in
00:49 54.5 °F 46.4 °F 30.00 in Calm   3.0 mph 74% 0.00 in
00:54 54.2 °F 45.7 °F 30.00 in ESE 1.0 mph 3.0 mph 73% 0.00 in
00:59 54.1 °F 45.6 °F 30.00 in Calm   3.0 mph 73% 0.00 in
01:05 53.7 °F 45.6 °F 30.00 in Calm   3.0 mph 74% 0.00 in
01:10 53.6 °F 45.2 °F 30.00 in Calm   3.0 mph 73% 0.00 in
01:15 53.4 °F 45.0 °F 30.00 in Calm   2.0 mph 73% 0.00 in
01:20 53.3 °F 44.9 °F 30.00 in Calm   2.0 mph 73% 0.00 in
01:25 53.3 °F 44.9 °F 30.00 in East 1.0 mph 2.0 mph 73% 0.00 in
01:30 53.1 °F 44.7 °F 29.99 in Calm   2.0 mph 73% 0.00 in
01:35 53.0 °F 44.6 °F 30.00 in Calm   2.0 mph 73% 0.00 in
01:40 53.0 °F 44.6 °F 29.99 in Calm     73% 0.00 in
01:45 53.0 °F 44.2 °F 29.99 in Calm     72% 0.00 in
01:50 52.9 °F 44.1 °F 29.99 in East 1.0 mph 1.0 mph 72% 0.00 in
01:55 52.8 °F 44.0 °F 30.00 in Calm   1.0 mph 72% 0.00 in
02:00 52.8 °F 44.0 °F 29.99 in Calm     72% 0.00 in
02:05 52.7 °F 43.9 °F 29.99 in Calm   1.0 mph 72% 0.00 in
02:10 52.8 °F 44.0 °F 29.99 in Calm   2.0 mph 72% 0.00 in
02:15 52.9 °F 43.7 °F 29.99 in East 1.0 mph 2.0 mph 71% 0.00 in
02:20 53.0 °F 43.8 °F 29.98 in East 1.0 mph 2.0 mph 71% 0.00 in
02:25 53.4 °F 43.9 °F 29.98 in Calm   4.0 mph 70% 0.00 in
02:30 53.7 °F 43.8 °F 29.98 in SE 3.0 mph 3.0 mph 69% 0.00 in
02:35 54.1 °F 43.8 °F 29.98 in SE 1.0 mph 4.0 mph 68% 0.00 in
02:40 54.3 °F 44.0 °F 29.98 in SE 2.0 mph 4.0 mph 68% 0.00 in
02:45 54.5 °F 43.8 °F 29.97 in SE 2.0 mph 4.0 mph 67% 0.00 in
02:50 54.7 °F 44.0 °F 29.97 in Calm   4.0 mph 67% 0.00 in
02:55 54.9 °F 43.7 °F 29.97 in SE 3.0 mph 4.0 mph 66% 0.00 in
03:00 55.0 °F 43.0 °F 29.97 in Calm   3.0 mph 64% 0.00 in
03:10 55.3 °F 44.1 °F 29.97 in SE 1.0 mph 3.0 mph 66% 0.00 in
03:15 55.2 °F 44.8 °F 29.96 in SE 1.0 mph 3.0 mph 68% 0.00 in
03:20 55.0 °F 45.8 °F 29.96 in SE 1.0 mph 4.0 mph 71% 0.00 in
03:25 54.6 °F 45.4 °F 29.97 in Calm   2.0 mph 71% 0.00 in
03:30 54.3 °F 46.2 °F 29.97 in Calm   1.0 mph 74% 0.00 in
03:35 54.4 °F 46.6 °F 29.97 in Calm     75% 0.00 in
03:40 54.5 °F 46.7 °F 29.96 in Calm   3.0 mph 75% 0.00 in
03:45 54.6 °F 46.8 °F 29.96 in SSE 1.0 mph 3.0 mph 75% 0.00 in
03:50 54.6 °F 46.8 °F 29.95 in SE 3.0 mph 4.0 mph 75% 0.00 in
03:55 54.7 °F 46.6 °F 29.95 in Calm   5.0 mph 74% 0.00 in
04:00 54.9 °F 46.8 °F 29.95 in Calm     74% 0.01 in
04:05 55.1 °F 46.6 °F 29.94 in Calm   3.0 mph 73% 0.01 in
04:10 55.3 °F 46.4 °F 29.94 in SE 2.0 mph 5.0 mph 72% 0.01 in
04:15 55.5 °F 46.2 °F 29.94 in ESE 2.0 mph 8.0 mph 71% 0.01 in
04:20 55.8 °F 46.2 °F 29.94 in ESE 2.0 mph 8.0 mph 70% 0.01 in
04:25 55.9 °F 45.9 °F 29.94 in ESE 1.0 mph 4.0 mph 69% 0.01 in
04:30 56.0 °F 46.0 °F 29.94 in ESE 1.0 mph 5.0 mph 69% 0.01 in
04:35 55.7 °F 46.1 °F 29.94 in Calm   5.0 mph 70% 0.01 in
04:40 55.5 °F 46.2 °F 29.94 in Calm   4.0 mph 71% 0.01 in
04:45 55.5 °F 46.6 °F 29.94 in ESE 1.0 mph 4.0 mph 72% 0.01 in
04:50 55.4 °F 46.5 °F 29.94 in East 1.0 mph 5.0 mph 72% 0.01 in
04:55 55.3 °F 46.8 °F 29.94 in SE 3.0 mph 5.0 mph 73% 0.01 in
05:00 55.3 °F 47.2 °F 29.93 in Calm   4.0 mph 74% 0.00 in
05:05 55.2 °F 47.1 °F 29.93 in SE 2.0 mph 5.0 mph 74% 0.00 in
05:10 55.2 °F 46.7 °F 29.93 in SSE 2.0 mph 6.0 mph 73% 0.00 in
05:15 55.2 °F 47.1 °F 29.93 in SSE 2.0 mph 6.0 mph 74% 0.00 in
05:20 55.2 °F 46.7 °F 29.92 in SSE 3.0 mph 7.0 mph 73% 0.00 in
05:25 55.2 °F 47.1 °F 29.92 in SE 3.0 mph 7.0 mph 74% 0.00 in
05:29 55.3 °F 46.8 °F 29.91 in SSE 2.0 mph 7.0 mph 73% 0.00 in
05:34 55.4 °F 46.9 °F 29.91 in ESE 2.0 mph 6.0 mph 73% 0.00 in
05:39 55.4 °F 46.9 °F 29.92 in SE 4.0 mph 6.0 mph 73% 0.00 in
05:44 55.4 °F 46.9 °F 29.91 in SE 3.0 mph 7.0 mph 73% 0.00 in
05:50 55.4 °F 46.9 °F 29.92 in SE 2.0 mph 7.0 mph 73% 0.00 in
05:55 55.4 °F 47.2 °F 29.91 in Calm   3.0 mph 74% 0.00 in
06:00 55.4 °F 47.2 °F 29.92 in Calm   1.0 mph 74% 0.00 in
06:05 55.4 °F 47.2 °F 29.92 in SSE 1.0 mph 5.0 mph 74% 0.00 in
06:10 55.4 °F 47.6 °F 29.92 in SSE 1.0 mph 3.0 mph 75% 0.00 in
06:15 55.5 °F 47.7 °F 29.91 in SSE 2.0 mph 5.0 mph 75% 0.00 in
06:20 55.6 °F 47.4 °F 29.91 in SSE 2.0 mph 5.0 mph 74% 0.00 in
06:25 55.7 °F 47.5 °F 29.92 in SSE 2.0 mph 4.0 mph 74% 0.00 in
06:30 55.7 °F 47.5 °F 29.91 in SSE 2.0 mph 4.0 mph 74% 0.00 in
06:35 55.9 °F 47.7 °F 29.91 in SSE 1.0 mph 4.0 mph 74% 0.00 in
06:40 55.9 °F 47.7 °F 29.90 in SSE 1.0 mph 4.0 mph 74% 0.00 in
06:45 55.9 °F 47.7 °F 29.90 in SE 2.0 mph 4.0 mph 74% 0.00 in
06:50 56.0 °F 47.8 °F 29.90 in ESE 1.0 mph 5.0 mph 74% 0.00 in
06:55 56.1 °F 47.9 °F 29.89 in SE 2.0 mph 5.0 mph 74% 0.00 in
06:59 56.2 °F 48.0 °F 29.89 in SE 1.0 mph 3.0 mph 74% 0.00 in
07:05 56.4 °F 47.9 °F 29.89 in ESE 2.0 mph 4.0 mph 73% 0.00 in
07:10 56.6 °F 48.4 °F 29.90 in Calm   3.0 mph 74% 0.00 in
07:15 56.7 °F 48.1 °F 29.90 in Calm   2.0 mph 73% 0.00 in
07:19 56.9 °F 48.7 °F 29.90 in Calm   2.0 mph 74% 0.00 in
07:25 56.8 °F 49.3 °F 29.90 in Calm     76% 0.00 in
07:30 56.4 °F 49.6 °F 29.90 in Calm   2.0 mph 78% 0.01 in
07:35 56.0 °F 49.6 °F 29.90 in Calm   2.0 mph 79% 0.01 in
07:40 55.8 °F 49.7 °F 29.91 in Calm     80% 0.01 in
07:45 55.7 °F 50.0 °F 29.92 in Calm   1.0 mph 81% 0.01 in
07:50 55.7 °F 50.3 °F 29.92 in Calm     82% 0.01 in
07:54 55.4 °F 50.0 °F 29.92 in Calm     82% 0.02 in
07:59 55.3 °F 50.2 °F 29.92 in Calm     83% 0.02 in
08:05 55.3 °F 50.2 °F 29.92 in Calm     83% 0.02 in
08:09 55.4 °F 50.6 °F 29.92 in Calm     84% 0.02 in
08:14 55.5 °F 51.1 °F 29.92 in Calm     85% 0.03 in
08:20 55.8 °F 51.0 °F 29.92 in Calm     84% 0.03 in
08:24 55.7 °F 50.9 °F 29.92 in Calm     84% 0.03 in
08:30 55.7 °F 50.6 °F 29.92 in ENE 1.0 mph 3.0 mph 83% 0.03 in
08:35 55.5 °F 50.7 °F 29.91 in SE 5.0 mph 5.0 mph 84% 0.03 in
08:40 55.4 °F 51.0 °F 29.90 in SE 2.0 mph 5.0 mph 85% 0.04 in
08:45 55.2 °F 50.8 °F 29.89 in East 1.0 mph 6.0 mph 85% 0.04 in
08:50 55.1 °F 51.0 °F 29.89 in East 3.0 mph 7.0 mph 86% 0.05 in
08:54 55.0 °F 50.9 °F 29.88 in ESE 3.0 mph 8.0 mph 86% 0.04 in
08:59 54.9 °F 50.8 °F 29.87 in ESE 3.0 mph 9.0 mph 86% 0.04 in
09:05 54.7 °F 50.3 °F 29.86 in ESE 3.0 mph 9.0 mph 85% 0.04 in
09:10 54.9 °F 50.8 °F 29.86 in SE 3.0 mph 9.0 mph 86% 0.04 in
09:15 55.3 °F 51.2 °F 29.86 in ESE 2.0 mph 8.0 mph 86% 0.03 in
09:20 55.8 °F 51.7 °F 29.86 in SE 4.0 mph 4.0 mph 86% 0.03 in
09:24 56.0 °F 51.6 °F 29.87 in SE 2.0 mph 4.0 mph 85% 0.03 in
09:30 56.2 °F 51.7 °F 29.88 in SE 1.0 mph 4.0 mph 85% 0.02 in
09:34 56.4 °F 51.6 °F 29.88 in SE 1.0 mph 3.0 mph 84% 0.02 in
09:39 56.6 °F 51.8 °F 29.88 in SE 2.0 mph 4.0 mph 84% 0.02 in
09:44 56.7 °F 51.9 °F 29.88 in Calm   3.0 mph 84% 0.02 in
09:49 56.8 °F 52.3 °F 29.87 in Calm   5.0 mph 85% 0.02 in
09:54 56.7 °F 52.2 °F 29.87 in SSE 1.0 mph 5.0 mph 85% 0.02 in
09:59 56.2 °F 51.7 °F 29.87 in SSE 2.0 mph 6.0 mph 85% 0.02 in
10:04 55.9 °F 51.8 °F 29.87 in SSE 3.0 mph 7.0 mph 86% 0.04 in
10:09 55.9 °F 52.1 °F 29.86 in SSE 4.0 mph 7.0 mph 87% 0.04 in
10:15 55.9 °F 52.1 °F 29.86 in South 3.0 mph 8.0 mph 87% 0.05 in
10:20 56.0 °F 52.5 °F 29.84 in SSE 3.0 mph 8.0 mph 88% 0.05 in
10:25 56.3 °F 52.8 °F 29.83 in SSE 4.0 mph 7.0 mph 88% 0.05 in
10:29 56.8 °F 53.6 °F 29.83 in SSE 3.0 mph 7.0 mph 89% 0.05 in
10:34 57.3 °F 54.1 °F 29.83 in SE 3.0 mph 6.0 mph 89% 0.05 in
10:39 57.8 °F 54.3 °F 29.83 in SSE 4.0 mph 8.0 mph 88% 0.04 in
10:44 58.1 °F 54.6 °F 29.83 in SSE 5.0 mph 8.0 mph 88% 0.04 in
10:50 58.6 °F 55.1 °F 29.82 in SSE 3.0 mph 10.0 mph 88% 0.03 in
10:54 58.9 °F 55.0 °F 29.83 in South 1.0 mph 7.0 mph 87% 0.03 in
11:00 59.6 °F 55.7 °F 29.83 in SSW 7.0 mph 11.0 mph 87% 0.03 in
11:04 60.6 °F 56.4 °F 29.82 in South 4.0 mph 11.0 mph 86% 0.01 in
11:10 61.4 °F 56.2 °F 29.82 in South 4.0 mph 10.0 mph 83% 0.01 in
11:15 61.6 °F 56.0 °F 29.82 in South 4.0 mph 10.0 mph 82% 0.00 in
11:20 62.0 °F 55.8 °F 29.81 in South 5.0 mph 9.0 mph 80% 0.01 in
11:25 62.1 °F 55.9 °F 29.81 in SSW 4.0 mph 11.0 mph 80% 0.01 in
11:30 63.3 °F 56.7 °F 29.81 in WSW 8.0 mph 11.0 mph 79% 0.01 in
11:34 63.1 °F 56.1 °F 29.81 in SSW 5.0 mph 11.0 mph 78% 0.01 in
11:39 62.9 °F 56.3 °F 29.81 in SSW 5.0 mph 11.0 mph 79% 0.01 in
11:45 62.7 °F 56.1 °F 29.80 in SSW 4.0 mph 9.0 mph 79% 0.01 in
11:50 62.7 °F 56.1 °F 29.79 in SSW 4.0 mph 8.0 mph 79% 0.01 in
11:54 62.9 °F 56.3 °F 29.79 in South 3.0 mph 9.0 mph 79% 0.01 in
11:59 63.2 °F 56.6 °F 29.79 in SSW 5.0 mph 11.0 mph 79% 0.01 in
12:04 64.3 °F 58.0 °F 29.79 in SSW 4.0 mph 11.0 mph 80% 0.01 in
12:09 64.9 °F 57.5 °F 29.79 in SSW 5.0 mph 10.0 mph 77% 0.01 in
12:14 64.6 °F 57.2 °F 29.79 in SSW 7.0 mph 12.0 mph 77% 0.01 in
12:19 65.3 °F 58.3 °F 29.79 in WSW 4.0 mph 12.0 mph 78% 0.00 in
12:24 67.4 °F 59.2 °F 29.79 in SW 5.0 mph 10.0 mph 75% 0.00 in
12:30 67.3 °F 58.3 °F 29.78 in SW 6.0 mph 12.0 mph 73% 0.00 in
12:34 67.6 °F 59.8 °F 29.78 in SSW 5.0 mph 12.0 mph 76% 0.00 in
12:39 68.4 °F 59.8 °F 29.78 in SW 6.0 mph 12.0 mph 74% 0.00 in
12:44 68.8 °F 60.2 °F 29.78 in SW 7.0 mph 15.0 mph 74% 0.00 in
12:50 69.2 °F 59.8 °F 29.78 in SW 7.0 mph 15.0 mph 72% 0.00 in
12:55 69.3 °F 59.5 °F 29.78 in SW 7.0 mph 15.0 mph 71% 0.00 in
13:00 69.7 °F 60.3 °F 29.78 in SW 7.0 mph 14.0 mph 72% 0.00 in
13:04 70.1 °F 59.9 °F 29.77 in WSW 11.0 mph 15.0 mph 70% 0.00 in
13:09 70.6 °F 60.7 °F 29.77 in West 9.0 mph 14.0 mph 71% 0.00 in
13:14 71.1 °F 60.4 °F 29.77 in West 3.0 mph 19.0 mph 69% 0.00 in
13:19 70.8 °F 60.5 °F 29.77 in WSW 7.0 mph 18.0 mph 70% 0.00 in
13:24 70.6 °F 61.1 °F 29.77 in WSW 6.0 mph 16.0 mph 72% 0.00 in
13:29 71.2 °F 60.9 °F 29.77 in SSW 6.0 mph 17.0 mph 70% 0.00 in
13:34 71.4 °F 60.7 °F 29.77 in WSW 9.0 mph 17.0 mph 69% 0.00 in
13:39 71.3 °F 61.0 °F 29.77 in WSW 9.0 mph 17.0 mph 70% 0.00 in
13:44 71.1 °F 60.8 °F 29.77 in WSW 8.0 mph 17.0 mph 70% 0.00 in
13:50 70.8 °F 60.1 °F 29.77 in WSW 8.0 mph 19.0 mph 69% 0.00 in
13:55 70.2 °F 60.0 °F 29.77 in SW 8.0 mph 20.0 mph 70% 0.00 in
13:59 70.0 °F 60.2 °F 29.76 in West 8.0 mph 19.0 mph 71% 0.00 in
14:04 70.6 °F 60.7 °F 29.77 in WSW 9.0 mph 19.0 mph 71% 0.00 in
14:09 70.3 °F 59.6 °F 29.76 in WSW 9.0 mph 17.0 mph 69% 0.00 in
14:14 70.1 °F 59.9 °F 29.76 in WSW 9.0 mph 20.0 mph 70% 0.00 in
14:19 70.0 °F 60.2 °F 29.76 in WSW 10.0 mph 20.0 mph 71% 0.00 in
14:24 70.3 °F 60.4 °F 29.76 in WSW 9.0 mph 19.0 mph 71% 0.00 in
14:29 70.9 °F 61.4 °F 29.76 in West 7.0 mph 17.0 mph 72% 0.00 in
14:34 71.6 °F 61.3 °F 29.76 in WSW 9.0 mph 17.0 mph 70% 0.00 in
14:39 72.0 °F 61.7 °F 29.76 in WSW 8.0 mph 15.0 mph 70% 0.00 in
14:44 72.1 °F 61.4 °F 29.76 in West 7.0 mph 16.0 mph 69% 0.00 in
14:49 72.5 °F 62.2 °F 29.76 in WSW 5.0 mph 16.0 mph 70% 0.00 in
14:54 72.9 °F 62.5 °F 29.76 in WSW 4.0 mph 15.0 mph 70% 0.00 in
14:59 73.2 °F 61.6 °F 29.75 in SSW 6.0 mph 20.0 mph 67% 0.00 in
15:04 73.1 °F 61.9 °F 29.75 in WSW 8.0 mph 20.0 mph 68% 0.00 in
15:09 73.3 °F 62.5 °F 29.75 in WSW 8.0 mph 21.0 mph 69% 0.00 in
15:14 73.6 °F 62.4 °F 29.75 in WSW 8.0 mph 21.0 mph 68% 0.00 in
15:20 73.5 °F 62.3 °F 29.75 in SW 8.0 mph 14.0 mph 68% 0.00 in
15:25 73.2 °F 62.0 °F 29.75 in WSW 14.0 mph 19.0 mph 68% 0.00 in
15:29 73.1 °F 62.3 °F 29.74 in SW 11.0 mph 16.0 mph 69% 0.00 in
15:34 72.8 °F 62.4 °F 29.74 in SW 9.0 mph 22.0 mph 70% 0.00 in
15:39 73.1 °F 62.3 °F 29.74 in SW 8.0 mph 22.0 mph 69% 0.00 in
15:49 71.5 °F 61.6 °F 29.74 in WSW 6.0 mph 15.0 mph 71% 0.00 in
15:59 73.0 °F 61.8 °F 29.74 in West 9.0 mph 14.0 mph 68% 0.00 in
16:04 72.6 °F 61.4 °F 29.74 in West 7.0 mph 15.0 mph 68% 0.00 in
16:09 72.1 °F 61.4 °F 29.74 in WSW 8.0 mph 18.0 mph 69% 0.00 in
16:14 71.7 °F 61.0 °F 29.74 in WSW 11.0 mph 17.0 mph 69% 0.00 in
16:19 72.1 °F 60.5 °F 29.74 in WSW 7.0 mph 17.0 mph 67% 0.00 in
16:24 73.1 °F 61.1 °F 29.74 in WSW 3.0 mph 14.0 mph 66% 0.00 in
16:29 73.3 °F 61.3 °F 29.73 in WSW 5.0 mph 13.0 mph 66% 0.00 in
16:34 73.0 °F 61.0 °F 29.74 in WSW 4.0 mph 15.0 mph 66% 0.00 in
16:39 73.1 °F 61.1 °F 29.73 in WSW 6.0 mph 15.0 mph 66% 0.00 in
16:44 73.0 °F 60.5 °F 29.73 in WSW 6.0 mph 14.0 mph 65% 0.00 in
16:49 72.7 °F 60.3 °F 29.73 in WSW 7.0 mph 16.0 mph 65% 0.00 in
16:55 72.3 °F 60.3 °F 29.73 in WSW 8.0 mph 16.0 mph 66% 0.00 in
16:59 71.8 °F 59.8 °F 29.73 in WSW 5.0 mph 16.0 mph 66% 0.00 in
17:04 71.6 °F 60.5 °F 29.73 in WSW 8.0 mph 16.0 mph 68% 0.00 in
17:09 71.8 °F 60.7 °F 29.73 in West 5.0 mph 11.0 mph 68% 0.00 in
17:14 71.5 °F 60.4 °F 29.72 in SW 7.0 mph 15.0 mph 68% 0.00 in
17:19 71.4 °F 60.3 °F 29.72 in West 9.0 mph 14.0 mph 68% 0.00 in
17:24 71.6 °F 60.5 °F 29.72 in SW 10.0 mph 16.0 mph 68% 0.00 in
17:29 72.6 °F 61.0 °F 29.72 in West 8.0 mph 13.0 mph 67% 0.00 in
17:34 72.6 °F 61.0 °F 29.72 in WSW 9.0 mph 15.0 mph 67% 0.00 in
17:39 72.4 °F 60.8 °F 29.72 in West 7.0 mph 15.0 mph 67% 0.00 in
17:44 72.5 °F 61.3 °F 29.72 in West 7.0 mph 14.0 mph 68% 0.00 in
17:49 71.7 °F 60.2 °F 29.71 in WSW 6.0 mph 13.0 mph 67% 0.00 in
17:54 71.1 °F 60.4 °F 29.71 in WSW 3.0 mph 14.0 mph 69% 0.00 in
17:59 70.8 °F 60.5 °F 29.71 in West 7.0 mph 10.0 mph 70% 0.00 in
18:04 70.9 °F 60.6 °F 29.71 in SW 3.0 mph 11.0 mph 70% 0.00 in
18:09 70.5 °F 60.6 °F 29.71 in SW 6.0 mph 13.0 mph 71% 0.00 in
18:14 70.5 °F 60.6 °F 29.71 in SW 6.0 mph 13.0 mph 71% 0.00 in
18:19 70.1 °F 60.3 °F 29.71 in WSW 5.0 mph 11.0 mph 71% 0.00 in
18:24 70.1 °F 60.3 °F 29.71 in WSW 4.0 mph 8.0 mph 71% 0.00 in
18:29 70.3 °F 60.4 °F 29.71 in West 1.0 mph 7.0 mph 71% 0.00 in
18:34 70.4 °F 60.5 °F 29.71 in SW 3.0 mph 9.0 mph 71% 0.00 in
18:39 70.3 °F 60.4 °F 29.71 in WSW 4.0 mph 10.0 mph 71% 0.00 in
18:44 70.3 °F 60.4 °F 29.72 in WSW 4.0 mph 10.0 mph 71% 0.00 in
18:49 70.6 °F 60.7 °F 29.71 in WSW 3.0 mph 7.0 mph 71% 0.00 in
18:54 70.7 °F 60.4 °F 29.71 in SW 3.0 mph 8.0 mph 70% 0.00 in
19:00 70.7 °F 60.0 °F 29.72 in WSW 4.0 mph 6.0 mph 69% 0.00 in
19:04 70.6 °F 60.3 °F 29.72 in SW 5.0 mph 10.0 mph 70% 0.00 in
19:09 70.4 °F 60.1 °F 29.72 in SW 5.0 mph 11.0 mph 70% 0.00 in
19:14 70.2 °F 60.0 °F 29.71 in SW 5.0 mph 12.0 mph 70% 0.00 in
19:19 70.0 °F 60.2 °F 29.71 in SW 5.0 mph 12.0 mph 71% 0.00 in
19:24 69.8 °F 60.0 °F 29.71 in SSE 3.0 mph 8.0 mph 71% 0.00 in
19:29 69.7 °F 60.3 °F 29.71 in West 2.0 mph 6.0 mph 72% 0.00 in
19:34 69.8 °F 60.4 °F 29.71 in WSW 5.0 mph 9.0 mph 72% 0.00 in
19:39 69.5 °F 60.8 °F 29.71 in WSW 5.0 mph 11.0 mph 74% 0.00 in
19:44 68.8 °F 60.9 °F 29.71 in SW 5.0 mph 11.0 mph 76% 0.00 in
19:49 68.4 °F 61.3 °F 29.71 in WSW 3.0 mph 7.0 mph 78% 0.00 in
19:54 68.3 °F 61.2 °F 29.71 in West 5.0 mph 9.0 mph 78% 0.00 in
20:04 68.0 °F 60.9 °F 29.71 in West 2.0 mph 8.0 mph 78% 0.00 in
20:09 67.8 °F 61.0 °F 29.71 in WSW 3.0 mph 8.0 mph 79% 0.00 in
20:14 67.7 °F 61.0 °F 29.71 in WSW 3.0 mph 7.0 mph 79% 0.00 in
20:19 67.6 °F 60.5 °F 29.71 in WSW 2.0 mph 5.0 mph 78% 0.00 in
20:24 67.6 °F 60.5 °F 29.70 in WSW 1.0 mph 4.0 mph 78% 0.00 in
20:29 67.5 °F 60.4 °F 29.71 in West 2.0 mph 5.0 mph 78% 0.00 in
20:34 67.4 °F 60.3 °F 29.71 in WSW 1.0 mph 5.0 mph 78% 0.00 in
20:39 67.4 °F 60.7 °F 29.71 in West 1.0 mph 4.0 mph 79% 0.00 in
20:44 67.3 °F 60.6 °F 29.71 in Calm   3.0 mph 79% 0.00 in
20:49 67.2 °F 60.5 °F 29.72 in WSW 1.0 mph 3.0 mph 79% 0.00 in
20:54 67.1 °F 60.7 °F 29.72 in Calm   1.0 mph 80% 0.00 in
20:59 67.0 °F 60.6 °F 29.71 in SSW 2.0 mph 3.0 mph 80% 0.00 in
21:04 66.9 °F 60.9 °F 29.71 in South 1.0 mph 4.0 mph 81% 0.00 in
21:09 66.9 °F 60.9 °F 29.72 in South 1.0 mph 4.0 mph 81% 0.00 in
21:14 66.8 °F 61.1 °F 29.72 in South 1.0 mph 3.0 mph 82% 0.00 in
21:19 66.8 °F 61.1 °F 29.72 in Calm   2.0 mph 82% 0.00 in
21:24 66.8 °F 61.1 °F 29.72 in Calm   3.0 mph 82% 0.00 in
21:29 66.7 °F 61.0 °F 29.72 in SSW 1.0 mph 3.0 mph 82% 0.00 in
21:34 66.7 °F 61.0 °F 29.72 in Calm   2.0 mph 82% 0.00 in
21:39 66.6 °F 61.3 °F 29.72 in Calm   2.0 mph 83% 0.00 in
21:44 66.6 °F 61.3 °F 29.72 in Calm     83% 0.00 in
21:49 66.6 °F 61.6 °F 29.72 in Calm     84% 0.00 in
21:54 66.6 °F 61.6 °F 29.72 in Calm     84% 0.00 in
21:59 66.6 °F 61.6 °F 29.72 in Calm     84% 0.00 in
22:04 66.6 °F 61.6 °F 29.72 in South 1.0 mph 3.0 mph 84% 0.00 in
22:09 66.5 °F 61.8 °F 29.72 in Calm   3.0 mph 85% 0.00 in
22:14 66.5 °F 61.8 °F 29.72 in Calm   2.0 mph 85% 0.00 in
22:19 66.4 °F 61.8 °F 29.72 in Calm     85% 0.00 in
22:24 66.5 °F 61.8 °F 29.72 in Calm   1.0 mph 85% 0.00 in
22:29 66.5 °F 61.8 °F 29.72 in Calm   1.0 mph 85% 0.00 in
22:34 66.5 °F 61.8 °F 29.72 in Calm     85% 0.00 in
22:39 66.5 °F 62.2 °F 29.72 in Calm     86% 0.00 in
22:44 66.4 °F 62.1 °F 29.72 in Calm     86% 0.00 in
22:49 66.3 °F 62.0 °F 29.72 in Calm     86% 0.00 in
22:54 66.1 °F 61.8 °F 29.72 in Calm     86% 0.00 in
22:59 65.8 °F 61.5 °F 29.72 in Calm     86% 0.00 in
23:04 65.5 °F 61.2 °F 29.72 in SW 1.0 mph 1.0 mph 86% 0.00 in
23:09 65.3 °F 61.0 °F 29.71 in SW 1.0 mph 6.0 mph 86% 0.00 in
23:14 65.1 °F 60.5 °F 29.71 in SW 3.0 mph 6.0 mph 85% 0.00 in
23:19 65.0 °F 60.4 °F 29.72 in SW 3.0 mph 6.0 mph 85% 0.00 in
23:24 64.8 °F 60.2 °F 29.72 in WSW 2.0 mph 5.0 mph 85% 0.00 in
23:29 64.6 °F 60.0 °F 29.72 in SW 2.0 mph 4.0 mph 85% 0.00 in
23:34 64.3 °F 59.7 °F 29.72 in WSW 1.0 mph 3.0 mph 85% 0.00 in
23:39 64.2 °F 59.9 °F 29.72 in WSW 3.0 mph 4.0 mph 86% 0.00 in
23:44 64.0 °F 59.7 °F 29.72 in WSW 1.0 mph 4.0 mph 86% 0.00 in
23:49 63.8 °F 59.5 °F 29.72 in WSW 1.0 mph 4.0 mph 86% 0.00 in
23:54 63.7 °F 59.4 °F 29.72 in WSW 2.0 mph 4.0 mph 86% 0.00 in
23:59 63.6 °F 59.7 °F 29.72 in West 1.0 mph 4.0 mph 87% 0.00 in
Buffalo, New York, USA
Compliments of Weather Underground - 2.5 mb